Time;durP1;ratioP1;P1;durP2;ratioP2;P2;SDS_P1;SDS_P2;PMS_P1;PMS_P2;Temp;Humidity;BMP_temperature;BMP_pressure;BME280_temperature;BME280_humidity;BME280_pressure;Samples;Min_cycle;Max_cycle;Signal;HPM_P1;HPM_P2
2020/12/18 00:01:30;;;;;;;21.13;13.55;;;;;;;;;;4955689;28;20058;-68
2020/12/18 00:03:57;;;;;;;22.65;14.48;;;;;;;;;;4955395;28;20047;-68
2020/12/18 00:06:24;;;;;;;23.90;14.80;;;;;;;;;;4954872;28;20112;-66
2020/12/18 00:08:51;;;;;;;15.75;12.23;;;;;;;;;;4964993;28;20061;-69
2020/12/18 00:11:20;;;;;;;18.15;11.90;;;;;;;;;;4957724;28;20070;-68
2020/12/18 00:13:47;;;;;;;18.05;12.25;;;;;;;;;;4955440;28;20425;-68
2020/12/18 00:16:13;;;;;;;16.38;12.30;;;;;;;;;;4954945;28;20050;-68
2020/12/18 00:18:40;;;;;;;19.45;13.57;;;;;;;;;;4955264;28;20505;-68
2020/12/18 00:21:06;;;;;;;18.83;12.27;;;;;;;;;;4955635;28;20050;-68
2020/12/18 00:23:33;;;;;;;16.77;11.70;;;;;;;;;;4970200;28;20484;-69
2020/12/18 00:26:00;;;;;;;20.02;12.88;;;;;;;;;;4973352;28;20477;-68
2020/12/18 00:28:26;;;;;;;17.35;12.65;;;;;;;;;;4959398;28;20501;-67
2020/12/18 00:30:52;;;;;;;17.33;12.95;;;;;;;;;;4955234;28;20054;-67
2020/12/18 00:33:18;;;;;;;17.60;12.73;;;;;;;;;;4955600;28;20070;-67
2020/12/18 00:35:45;;;;;;;17.42;12.27;;;;;;;;;;4955461;28;20106;-68
2020/12/18 00:38:11;;;;;;;15.38;11.43;;;;;;;;;;4960039;28;20055;-69
2020/12/18 00:40:37;;;;;;;16.20;12.30;;;;;;;;;;4954976;28;20137;-68
2020/12/18 00:43:04;;;;;;;19.85;12.00;;;;;;;;;;4955399;28;20061;-67
2020/12/18 00:45:30;;;;;;;19.20;12.27;;;;;;;;;;4938375;28;20405;-69
2020/12/18 00:47:56;;;;;;;14.18;11.25;;;;;;;;;;4955410;28;20498;-67
2020/12/18 00:50:22;;;;;;;17.45;12.13;;;;;;;;;;4961418;28;20054;-69
2020/12/18 00:52:48;;;;;;;17.85;12.02;;;;;;;;;;4958041;28;20046;-68
2020/12/18 00:55:14;;;;;;;16.50;10.73;;;;;;;;;;4974219;28;20046;-68
2020/12/18 00:57:40;;;;;;;15.25;10.43;;;;;;;;;;4968098;28;20063;-68
2020/12/18 01:00:07;;;;;;;12.80;9.68;;;;;;;;;;4955170;28;20050;-68
2020/12/18 01:02:34;;;;;;;13.63;10.43;;;;;;;;;;4955026;28;20133;-66
2020/12/18 01:05:01;;;;;;;14.35;10.68;;;;;;;;;;4966162;28;20134;-67
2020/12/18 01:07:27;;;;;;;12.90;9.75;;;;;;;;;;4975580;28;20047;-67
2020/12/18 01:09:53;;;;;;;14.90;9.93;;;;;;;;;;4994856;28;20118;-66
2020/12/18 01:12:20;;;;;;;13.13;9.70;;;;;;;;;;4993613;28;20052;-66
2020/12/18 01:14:46;;;;;;;17.27;10.55;;;;;;;;;;4997266;28;20048;-66
2020/12/18 01:17:13;;;;;;;15.55;11.73;;;;;;;;;;4989559;28;20058;-66
2020/12/18 01:19:40;;;;;;;17.30;12.05;;;;;;;;;;4960761;28;20059;-67
2020/12/18 01:22:06;;;;;;;14.77;10.68;;;;;;;;;;4958288;28;20435;-66
2020/12/18 01:24:32;;;;;;;14.63;10.27;;;;;;;;;;4957938;28;20073;-67
2020/12/18 01:26:58;;;;;;;15.48;10.70;;;;;;;;;;4941942;28;20055;-69
2020/12/18 01:29:25;;;;;;;20.60;11.98;;;;;;;;;;4960869;28;20046;-67
2020/12/18 01:31:52;;;;;;;16.52;11.38;;;;;;;;;;4971336;28;20509;-68
2020/12/18 01:34:18;;;;;;;16.42;11.60;;;;;;;;;;4977390;28;20061;-67
2020/12/18 01:36:44;;;;;;;17.35;11.70;;;;;;;;;;4975890;28;20050;-66
2020/12/18 01:39:10;;;;;;;17.65;12.45;;;;;;;;;;4977391;28;20050;-68
2020/12/18 01:41:37;;;;;;;17.02;12.23;;;;;;;;;;4976698;28;20061;-67
2020/12/18 01:44:03;;;;;;;16.00;11.40;;;;;;;;;;4977114;28;20441;-68
2020/12/18 01:46:29;;;;;;;16.48;11.25;;;;;;;;;;4968457;28;20051;-67
2020/12/18 01:48:56;;;;;;;15.57;11.73;;;;;;;;;;4948995;28;20443;-66
2020/12/18 01:51:23;;;;;;;17.30;12.50;;;;;;;;;;4950152;28;20055;-67
2020/12/18 01:53:49;;;;;;;21.48;13.25;;;;;;;;;;4944712;28;20047;-67
2020/12/18 01:56:16;;;;;;;16.50;12.00;;;;;;;;;;4946725;28;20261;-67
2020/12/18 01:58:43;;;;;;;19.20;12.07;;;;;;;;;;4931241;28;20055;-67
2020/12/18 02:01:09;;;;;;;16.27;11.98;;;;;;;;;;4934315;28;20043;-67
2020/12/18 02:03:37;;;;;;;19.25;10.48;;;;;;;;;;4944834;28;20058;-68
2020/12/18 02:06:17;;;;;;;15.02;11.07;;;;;;;;;;4960798;28;20485;-69
2020/12/18 02:08:44;;;;;;;14.32;10.98;;;;;;;;;;4930128;28;20553;-66
2020/12/18 02:11:20;;;;;;;16.15;11.57;;;;;;;;;;4941991;28;20528;-67
2020/12/18 02:13:50;;;;;;;14.95;11.55;;;;;;;;;;4971034;28;20069;-67
2020/12/18 02:16:16;;;;;;;16.10;11.60;;;;;;;;;;4955908;28;20050;-67
2020/12/18 02:18:43;;;;;;;21.13;12.52;;;;;;;;;;4957141;28;20062;-69
2020/12/18 02:21:09;;;;;;;20.55;12.55;;;;;;;;;;4956751;28;20058;-66
2020/12/18 02:23:38;;;;;;;28.33;13.73;;;;;;;;;;4957282;28;20051;-68
2020/12/18 02:26:07;;;;;;;28.02;12.07;;;;;;;;;;4973625;28;20340;-67
2020/12/18 02:28:36;;;;;;;21.10;10.88;;;;;;;;;;4973037;28;20128;-66
2020/12/18 02:31:03;;;;;;;17.63;11.27;;;;;;;;;;4976370;28;20057;-67
2020/12/18 02:33:30;;;;;;;14.40;10.65;;;;;;;;;;4975661;28;20050;-68
2020/12/18 02:35:58;;;;;;;16.25;11.25;;;;;;;;;;4975312;28;20144;-67
2020/12/18 02:38:27;;;;;;;13.55;10.35;;;;;;;;;;4973628;28;20054;-67
2020/12/18 02:40:53;;;;;;;16.17;10.05;;;;;;;;;;4956315;28;20051;-67
2020/12/18 02:43:20;;;;;;;13.70;10.07;;;;;;;;;;4958448;28;20065;-67
2020/12/18 02:45:47;;;;;;;12.68;9.18;;;;;;;;;;4956123;28;20054;-68
2020/12/18 02:48:13;;;;;;;13.75;9.43;;;;;;;;;;4954721;28;20042;-67
2020/12/18 02:50:40;;;;;;;12.88;9.70;;;;;;;;;;4944130;28;20474;-69
2020/12/18 02:53:14;;;;;;;15.07;9.45;;;;;;;;;;4948539;28;20055;-67
2020/12/18 02:55:41;;;;;;;14.35;9.88;;;;;;;;;;4944515;28;20078;-68
2020/12/18 02:58:09;;;;;;;20.63;10.88;;;;;;;;;;4945318;28;20046;-66
2020/12/18 03:00:36;;;;;;;20.52;10.70;;;;;;;;;;4951842;28;20047;-68
2020/12/18 03:03:03;;;;;;;16.25;9.88;;;;;;;;;;4945496;28;20058;-66
2020/12/18 03:05:29;;;;;;;13.30;9.32;;;;;;;;;;4946352;28;20485;-68
2020/12/18 03:07:55;;;;;;;15.60;11.13;;;;;;;;;;4942446;28;20058;-67
2020/12/18 03:17:18;;;;;;;14.32;9.68;;;;;;;;;;4960417;28;20066;-67
2020/12/18 03:19:44;;;;;;;17.23;9.52;;;;;;;;;;4961888;28;20055;-69
2020/12/18 03:22:10;;;;;;;12.80;9.38;;;;;;;;;;4954007;28;20059;-66
2020/12/18 03:24:36;;;;;;;13.75;9.23;;;;;;;;;;4952254;29;20055;-69
2020/12/18 03:27:16;;;;;;;12.13;8.85;;;;;;;;;;4950703;29;20056;-68
2020/12/18 03:29:42;;;;;;;12.38;8.82;;;;;;;;;;4936424;29;20501;-68
2020/12/18 03:32:08;;;;;;;11.07;8.15;;;;;;;;;;4936755;28;20047;-68
2020/12/18 03:34:34;;;;;;;11.40;8.27;;;;;;;;;;4936049;29;20485;-67
2020/12/18 03:37:01;;;;;;;11.13;8.18;;;;;;;;;;4935051;29;20046;-68
2020/12/18 03:39:27;;;;;;;12.05;8.82;;;;;;;;;;4936258;29;20106;-66
2020/12/18 03:41:53;;;;;;;10.48;8.52;;;;;;;;;;4952253;29;20050;-67
2020/12/18 03:44:19;;;;;;;13.27;9.02;;;;;;;;;;4936220;29;20043;-67
2020/12/18 03:46:46;;;;;;;11.77;9.10;;;;;;;;;;4935921;29;20058;-66
2020/12/18 03:49:12;;;;;;;13.40;9.63;;;;;;;;;;4937182;29;20051;-67
2020/12/18 03:51:38;;;;;;;12.20;9.10;;;;;;;;;;4948645;29;20383;-67
2020/12/18 03:54:05;;;;;;;12.30;9.80;;;;;;;;;;4933498;29;20509;-67
2020/12/18 03:56:34;;;;;;;12.88;9.30;;;;;;;;;;4941203;29;20083;-66
2020/12/18 03:59:00;;;;;;;11.95;9.43;;;;;;;;;;4952447;29;20051;-68
2020/12/18 04:01:26;;;;;;;11.30;9.38;;;;;;;;;;4948788;29;20054;-66
2020/12/18 04:03:52;;;;;;;10.55;8.95;;;;;;;;;;4933032;29;20044;-67
2020/12/18 04:06:20;;;;;;;11.13;9.18;;;;;;;;;;4933010;29;20269;-66
2020/12/18 04:08:46;;;;;;;11.70;8.95;;;;;;;;;;4951152;29;20043;-69
2020/12/18 04:11:13;;;;;;;12.38;9.32;;;;;;;;;;4952666;29;20055;-67
2020/12/18 04:13:40;;;;;;;10.63;8.48;;;;;;;;;;4935991;29;20333;-68
2020/12/18 04:16:06;;;;;;;12.57;9.23;;;;;;;;;;4951835;29;20055;-68
2020/12/18 04:18:33;;;;;;;11.85;8.73;;;;;;;;;;4953365;29;20047;-67
2020/12/18 04:20:59;;;;;;;12.52;8.82;;;;;;;;;;4953418;29;20047;-68
2020/12/18 04:23:26;;;;;;;11.85;8.85;;;;;;;;;;4952443;29;20058;-68
2020/12/18 04:25:53;;;;;;;11.27;8.68;;;;;;;;;;4947909;29;20051;-67
2020/12/18 04:28:19;;;;;;;10.68;8.57;;;;;;;;;;4933285;29;20055;-68
2020/12/18 04:30:45;;;;;;;10.57;8.50;;;;;;;;;;4932695;29;20048;-66
2020/12/18 04:33:12;;;;;;;12.05;8.80;;;;;;;;;;4932657;29;20375;-66
2020/12/18 04:35:38;;;;;;;10.55;8.18;;;;;;;;;;4932137;29;20056;-66
2020/12/18 04:38:05;;;;;;;9.77;8.40;;;;;;;;;;4932986;29;20410;-68
2020/12/18 04:40:34;;;;;;;12.38;9.45;;;;;;;;;;4932971;29;20064;-66
2020/12/18 04:43:01;;;;;;;10.85;8.77;;;;;;;;;;4932779;29;20047;-67
2020/12/18 04:45:27;;;;;;;11.90;9.93;;;;;;;;;;4919125;29;20051;-68
2020/12/18 04:47:54;;;;;;;11.05;8.82;;;;;;;;;;4920636;29;20051;-66
2020/12/18 04:50:21;;;;;;;13.75;8.75;;;;;;;;;;4937468;29;20062;-67
2020/12/18 04:52:47;;;;;;;13.52;9.63;;;;;;;;;;4953962;29;20506;-65
2020/12/18 04:55:13;;;;;;;14.30;9.38;;;;;;;;;;4938365;29;20505;-68
2020/12/18 04:57:40;;;;;;;14.48;9.32;;;;;;;;;;4944736;29;20079;-66
2020/12/18 05:00:07;;;;;;;11.68;9.05;;;;;;;;;;4940882;29;20521;-67
2020/12/18 05:02:34;;;;;;;17.15;10.18;;;;;;;;;;4955080;29;20055;-66
2020/12/18 05:05:00;;;;;;;15.88;10.63;;;;;;;;;;4955187;29;20051;-67
2020/12/18 05:07:27;;;;;;;16.88;10.80;;;;;;;;;;4955794;29;20498;-67
2020/12/18 05:09:54;;;;;;;12.88;9.48;;;;;;;;;;4955162;29;20054;-68
2020/12/18 05:12:20;;;;;;;11.35;8.90;;;;;;;;;;4955376;29;20048;-68
2020/12/18 05:14:47;;;;;;;11.27;8.85;;;;;;;;;;4955115;29;20066;-67
2020/12/18 05:17:13;;;;;;;14.73;9.88;;;;;;;;;;4954302;29;20043;-67
2020/12/18 05:19:44;;;;;;;13.57;9.75;;;;;;;;;;4939059;29;20051;-68
2020/12/18 05:22:12;;;;;;;13.85;9.40;;;;;;;;;;4939186;29;20055;-66
2020/12/18 05:24:39;;;;;;;14.07;10.40;;;;;;;;;;4938916;29;20054;-67
2020/12/18 05:27:06;;;;;;;16.45;11.25;;;;;;;;;;4938743;29;20050;-68
2020/12/18 05:29:32;;;;;;;17.20;11.75;;;;;;;;;;4938858;29;20051;-66
2020/12/18 05:32:00;;;;;;;12.55;9.70;;;;;;;;;;4954933;29;20066;-67
2020/12/18 05:34:27;;;;;;;12.63;10.07;;;;;;;;;;4938834;29;20387;-67
2020/12/18 05:36:54;;;;;;;15.95;9.75;;;;;;;;;;4954058;29;20054;-67
2020/12/18 05:39:20;;;;;;;13.93;10.43;;;;;;;;;;4951301;29;20059;-69
2020/12/18 05:42:02;;;;;;;13.32;9.60;;;;;;;;;;4935564;29;20139;-69
2020/12/18 05:44:30;;;;;;;12.80;10.05;;;;;;;;;;4936797;29;20056;-66
2020/12/18 05:47:09;;;;;;;13.00;10.07;;;;;;;;;;4934846;29;20051;-68
2020/12/18 05:49:38;;;;;;;13.02;10.27;;;;;;;;;;4953469;29;20055;-66
2020/12/18 05:52:05;;;;;;;16.08;10.10;;;;;;;;;;4954583;29;20054;-66
2020/12/18 05:54:32;;;;;;;22.35;13.93;;;;;;;;;;4954424;29;20051;-67
2020/12/18 05:56:59;;;;;;;22.20;14.65;;;;;;;;;;4953325;28;20055;-67
2020/12/18 05:59:26;;;;;;;28.17;15.73;;;;;;;;;;4922432;29;20059;-67
2020/12/18 06:01:53;;;;;;;23.00;14.13;;;;;;;;;;4937972;29;20088;-68
2020/12/18 06:04:23;;;;;;;17.77;12.73;;;;;;;;;;4938439;29;20051;-67
2020/12/18 06:06:54;;;;;;;20.42;13.75;;;;;;;;;;4938284;29;20494;-68
2020/12/18 06:09:27;;;;;;;18.70;13.15;;;;;;;;;;4938482;29;20063;-66
2020/12/18 06:11:54;;;;;;;18.85;12.77;;;;;;;;;;4938006;29;20059;-69
2020/12/18 06:14:20;;;;;;;18.55;12.68;;;;;;;;;;4954212;29;20051;-67
2020/12/18 06:16:51;;;;;;;17.98;12.50;;;;;;;;;;4953212;29;20051;-67
2020/12/18 06:19:19;;;;;;;16.15;12.00;;;;;;;;;;4954010;29;20043;-67
2020/12/18 06:21:58;;;;;;;19.00;12.50;;;;;;;;;;4953635;29;20059;-67
2020/12/18 06:24:41;;;;;;;14.57;11.30;;;;;;;;;;4953732;29;20058;-68
2020/12/18 06:27:11;;;;;;;15.93;11.85;;;;;;;;;;4953552;29;20083;-67
2020/12/18 06:29:37;;;;;;;16.73;11.60;;;;;;;;;;4953783;29;20050;-68
2020/12/18 06:32:25;;;;;;;16.13;11.95;;;;;;;;;;4952735;29;20482;-68
2020/12/18 06:34:53;;;;;;;18.95;12.27;;;;;;;;;;4937347;29;20067;-68
2020/12/18 06:37:32;;;;;;;17.88;12.18;;;;;;;;;;4937423;29;20058;-68
2020/12/18 06:39:59;;;;;;;17.67;12.27;;;;;;;;;;4953496;29;20491;-68
2020/12/18 06:42:26;;;;;;;19.23;13.23;;;;;;;;;;4937448;29;20047;-69
2020/12/18 06:44:53;;;;;;;16.40;12.32;;;;;;;;;;4937596;29;20056;-68
2020/12/18 06:47:21;;;;;;;19.88;13.07;;;;;;;;;;4937301;29;20490;-68
2020/12/18 06:49:56;;;;;;;16.23;11.90;;;;;;;;;;4949863;29;20060;-66
2020/12/18 06:52:43;;;;;;;21.60;12.90;;;;;;;;;;4934284;29;20058;-66
2020/12/18 06:55:11;;;;;;;18.92;12.68;;;;;;;;;;4933731;29;20078;-68
2020/12/18 06:57:38;;;;;;;17.80;13.63;;;;;;;;;;4934096;29;20490;-68
2020/12/18 07:00:29;;;;;;;17.45;12.85;;;;;;;;;;4945448;29;20051;-68
2020/12/18 07:02:58;;;;;;;23.23;16.77;;;;;;;;;;4937383;29;20110;-68
2020/12/18 07:05:38;;;;;;;23.02;16.90;;;;;;;;;;4952695;29;20416;-67
2020/12/18 07:08:09;;;;;;;26.70;16.60;;;;;;;;;;4952627;28;20054;-66
2020/12/18 07:10:43;;;;;;;22.55;16.30;;;;;;;;;;4952885;29;20098;-68
2020/12/18 07:13:13;;;;;;;25.92;15.32;;;;;;;;;;4953108;29;20398;-68
2020/12/18 07:15:42;;;;;;;22.00;15.25;;;;;;;;;;4952213;29;20402;-67
2020/12/18 07:18:39;;;;;;;21.13;14.52;;;;;;;;;;4952280;29;20051;-68
2020/12/18 07:21:13;;;;;;;20.58;13.38;;;;;;;;;;4951259;29;20394;-68
2020/12/18 07:23:43;;;;;;;18.20;12.35;;;;;;;;;;4950760;29;20047;-68
2020/12/18 07:26:11;;;;;;;17.48;11.98;;;;;;;;;;4952373;29;20074;-67
2020/12/18 07:28:39;;;;;;;16.65;12.88;;;;;;;;;;4936970;29;20057;-66
2020/12/18 07:31:12;;;;;;;15.70;11.77;;;;;;;;;;4934984;29;20047;-67
2020/12/18 07:33:39;;;;;;;17.67;13.15;;;;;;;;;;4943935;29;20051;-68
2020/12/18 07:36:06;;;;;;;18.15;13.25;;;;;;;;;;4932583;29;20059;-66
2020/12/18 07:38:33;;;;;;;13.32;10.35;;;;;;;;;;4933079;29;20055;-67
2020/12/18 07:41:02;;;;;;;18.50;11.07;;;;;;;;;;4946910;29;20106;-67
2020/12/18 07:43:30;;;;;;;15.82;12.10;;;;;;;;;;4952006;29;20044;-68
2020/12/18 07:45:58;;;;;;;13.52;10.95;;;;;;;;;;4948890;29;20501;-68
2020/12/18 07:48:29;;;;;;;15.80;11.57;;;;;;;;;;4951354;29;20059;-68
2020/12/18 07:51:06;;;;;;;17.02;10.95;;;;;;;;;;4931176;29;20070;-66
2020/12/18 07:53:37;;;;;;;14.35;11.00;;;;;;;;;;4953155;29;20051;-68
2020/12/18 07:56:10;;;;;;;45.97;26.65;;;;;;;;;;4951708;29;20513;-67
2020/12/18 07:58:49;;;;;;;19.48;12.70;;;;;;;;;;4952256;29;20055;-66
2020/12/18 08:01:29;;;;;;;16.38;11.80;;;;;;;;;;4952714;29;20057;-64
2020/12/18 08:04:09;;;;;;;19.13;11.00;;;;;;;;;;4935650;29;20054;-69
2020/12/18 08:06:39;;;;;;;16.58;11.50;;;;;;;;;;4935376;29;20059;-64
2020/12/18 08:09:06;;;;;;;17.05;12.60;;;;;;;;;;4952720;29;20054;-69
2020/12/18 08:11:42;;;;;;;19.40;13.05;;;;;;;;;;4934369;29;20055;-67
2020/12/18 08:14:09;;;;;;;20.48;12.60;;;;;;;;;;4950462;29;20140;-66
2020/12/18 08:16:35;;;;;;;17.02;12.25;;;;;;;;;;4946474;29;20078;-66
2020/12/18 08:19:12;;;;;;;22.83;15.38;;;;;;;;;;4931859;29;20070;-66
2020/12/18 08:21:46;;;;;;;17.92;13.23;;;;;;;;;;4934963;29;20055;-66
2020/12/18 08:24:27;;;;;;;18.10;12.35;;;;;;;;;;4934735;29;20063;-67
2020/12/18 08:27:03;;;;;;;15.90;11.48;;;;;;;;;;4936855;29;20472;-67
2020/12/18 08:29:31;;;;;;;16.52;11.38;;;;;;;;;;4938373;29;20055;-66
2020/12/18 08:31:59;;;;;;;14.27;11.32;;;;;;;;;;4953973;29;20057;-68
2020/12/18 08:34:30;;;;;;;18.83;11.27;;;;;;;;;;4954338;29;20089;-66
2020/12/18 08:36:57;;;;;;;13.57;10.77;;;;;;;;;;4967515;29;20040;-65
2020/12/18 08:39:28;;;;;;;18.27;11.60;;;;;;;;;;4959622;29;20059;-65
2020/12/18 08:41:54;;;;;;;12.65;9.82;;;;;;;;;;4957087;29;20044;-66
2020/12/18 08:44:28;;;;;;;13.77;10.52;;;;;;;;;;4960176;29;20066;-65
2020/12/18 08:46:56;;;;;;;15.23;11.73;;;;;;;;;;4953084;29;20055;-69
2020/12/18 08:49:27;;;;;;;17.75;12.38;;;;;;;;;;4954020;29;20064;-68
2020/12/18 08:51:54;;;;;;;18.33;12.52;;;;;;;;;;4953113;29;20062;-67
2020/12/18 08:54:34;;;;;;;14.65;11.88;;;;;;;;;;4954064;29;20051;-67
2020/12/18 08:57:14;;;;;;;14.40;11.10;;;;;;;;;;4949699;29;20062;-66
2020/12/18 08:59:54;;;;;;;15.45;10.60;;;;;;;;;;4918532;29;20519;-64
2020/12/18 09:02:20;;;;;;;13.80;11.27;;;;;;;;;;4934546;29;20059;-64
2020/12/18 09:04:47;;;;;;;17.73;11.10;;;;;;;;;;4934548;29;20056;-66
2020/12/18 09:07:13;;;;;;;17.13;11.30;;;;;;;;;;4948703;29;20071;-63
2020/12/18 09:09:53;;;;;;;13.35;11.23;;;;;;;;;;4949644;29;20062;-64
2020/12/18 09:12:19;;;;;;;16.88;12.20;;;;;;;;;;4953013;29;20529;-64
2020/12/18 09:18:34;;;;;;;15.30;11.15;;;;;;;;;;4962894;28;20055;-63
2020/12/18 09:21:13;;;;;;;12.88;10.40;;;;;;;;;;4951202;28;20139;-64
2020/12/18 09:23:42;;;;;;;13.45;10.27;;;;;;;;;;4946349;28;20054;-65
2020/12/18 09:26:26;;;;;;;13.60;10.50;;;;;;;;;;4946829;28;20528;-65
2020/12/18 09:28:53;;;;;;;16.58;11.13;;;;;;;;;;4946239;28;20047;-63
2020/12/18 09:31:19;;;;;;;19.75;12.50;;;;;;;;;;4944769;28;20490;-63
2020/12/18 09:33:45;;;;;;;19.02;11.98;;;;;;;;;;4945708;28;20058;-64
2020/12/18 09:36:13;;;;;;;17.17;11.00;;;;;;;;;;4947686;28;20141;-65
2020/12/18 09:38:41;;;;;;;16.23;11.65;;;;;;;;;;4943441;28;20421;-64
2020/12/18 09:41:11;;;;;;;15.73;11.50;;;;;;;;;;4945605;28;20138;-65
2020/12/18 09:43:38;;;;;;;15.82;11.98;;;;;;;;;;4946089;28;20058;-63
2020/12/18 09:46:18;;;;;;;16.30;11.45;;;;;;;;;;4944085;28;20516;-63
2020/12/18 09:48:46;;;;;;;15.45;11.70;;;;;;;;;;4948823;28;20066;-64
2020/12/18 09:51:12;;;;;;;15.50;11.00;;;;;;;;;;4945811;28;20051;-65
2020/12/18 09:53:39;;;;;;;15.32;10.90;;;;;;;;;;4947926;29;20048;-63
2020/12/18 09:56:09;;;;;;;13.63;9.90;;;;;;;;;;4954141;28;20376;-65
2020/12/18 09:58:35;;;;;;;13.75;10.48;;;;;;;;;;4956032;28;20409;-64
2020/12/18 10:01:02;;;;;;;15.70;11.45;;;;;;;;;;4953250;28;20054;-62
2020/12/18 10:03:29;;;;;;;15.23;11.32;;;;;;;;;;4955875;28;21341;-63
2020/12/18 10:05:55;;;;;;;14.85;11.10;;;;;;;;;;4956511;28;20806;-65
2020/12/18 10:08:21;;;;;;;14.00;10.55;;;;;;;;;;4973127;28;20055;-62
2020/12/18 10:10:48;;;;;;;16.67;11.10;;;;;;;;;;4952651;28;20521;-63
2020/12/18 10:13:14;;;;;;;13.63;10.35;;;;;;;;;;4956492;28;20061;-64
2020/12/18 10:15:41;;;;;;;16.58;10.70;;;;;;;;;;4947754;28;20153;-59
2020/12/18 10:18:07;;;;;;;15.73;11.35;;;;;;;;;;4947392;28;20062;-62
2020/12/18 10:20:33;;;;;;;14.00;10.27;;;;;;;;;;4943145;28;20062;-61
2020/12/18 10:23:00;;;;;;;12.43;10.05;;;;;;;;;;4949465;28;20548;-64
2020/12/18 10:25:26;;;;;;;15.32;10.70;;;;;;;;;;4943446;28;20046;-64
2020/12/18 10:27:52;;;;;;;13.85;10.38;;;;;;;;;;4939120;29;20082;-65
2020/12/18 10:30:18;;;;;;;14.68;10.18;;;;;;;;;;4945582;28;20102;-65
2020/12/18 10:32:45;;;;;;;13.70;10.68;;;;;;;;;;4940930;28;20502;-64
2020/12/18 10:35:11;;;;;;;13.35;10.02;;;;;;;;;;4946970;28;20528;-63
2020/12/18 10:37:38;;;;;;;14.95;10.70;;;;;;;;;;4941008;28;20058;-63
2020/12/18 10:40:05;;;;;;;13.57;10.05;;;;;;;;;;4943343;28;20047;-64
2020/12/18 10:42:32;;;;;;;16.20;10.75;;;;;;;;;;4943371;28;20058;-66
2020/12/18 10:44:58;;;;;;;15.65;10.80;;;;;;;;;;4944133;28;20283;-65
2020/12/18 10:47:24;;;;;;;18.42;12.20;;;;;;;;;;4947167;28;20081;-65
2020/12/18 10:49:50;;;;;;;14.25;11.50;;;;;;;;;;4942786;28;20462;-66
2020/12/18 10:52:16;;;;;;;13.38;10.90;;;;;;;;;;4944925;28;20057;-65
2020/12/18 10:54:43;;;;;;;14.63;9.77;;;;;;;;;;4944285;28;20054;-66
2020/12/18 10:57:09;;;;;;;14.85;10.90;;;;;;;;;;4943954;28;20055;-64
2020/12/18 10:59:36;;;;;;;17.60;11.48;;;;;;;;;;4942454;28;20446;-65
2020/12/18 11:02:05;;;;;;;15.13;10.23;;;;;;;;;;4941983;28;20394;-65
2020/12/18 11:04:31;;;;;;;15.63;11.32;;;;;;;;;;4943314;28;20615;-65
2020/12/18 11:06:57;;;;;;;15.35;10.98;;;;;;;;;;4948776;28;20047;-66
2020/12/18 11:09:24;;;;;;;13.25;10.10;;;;;;;;;;4955706;28;20047;-64
2020/12/18 11:11:53;;;;;;;15.10;10.15;;;;;;;;;;4953757;28;20050;-64
2020/12/18 11:14:20;;;;;;;16.73;10.65;;;;;;;;;;4953954;28;20046;-65
2020/12/18 11:16:46;;;;;;;13.00;9.77;;;;;;;;;;4954358;28;20383;-66
2020/12/18 11:19:13;;;;;;;13.05;9.80;;;;;;;;;;4954821;28;20055;-64
2020/12/18 11:21:43;;;;;;;13.40;9.88;;;;;;;;;;4955819;28;20046;-65
2020/12/18 11:24:11;;;;;;;14.00;10.18;;;;;;;;;;4955673;28;20073;-65
2020/12/18 11:26:37;;;;;;;10.65;8.95;;;;;;;;;;4937660;29;20055;-66
2020/12/18 11:29:03;;;;;;;14.70;10.88;;;;;;;;;;4935797;29;20053;-64
2020/12/18 11:31:30;;;;;;;15.77;10.60;;;;;;;;;;4953341;29;20070;-66
2020/12/18 11:33:56;;;;;;;12.20;9.50;;;;;;;;;;4935971;29;20455;-66
2020/12/18 11:36:23;;;;;;;15.75;10.25;;;;;;;;;;4935513;29;20055;-65
2020/12/18 11:38:49;;;;;;;13.70;9.23;;;;;;;;;;4935511;29;20070;-66
2020/12/18 11:41:19;;;;;;;14.70;9.90;;;;;;;;;;4936093;29;20518;-64
2020/12/18 11:43:46;;;;;;;12.38;9.85;;;;;;;;;;4935902;29;20058;-64
2020/12/18 11:46:12;;;;;;;15.95;10.23;;;;;;;;;;4935090;29;20043;-66
2020/12/18 11:48:39;;;;;;;12.60;10.45;;;;;;;;;;4936113;29;20138;-64
2020/12/18 11:51:07;;;;;;;14.27;10.48;;;;;;;;;;4936231;29;20055;-65
2020/12/18 11:53:36;;;;;;;13.10;9.82;;;;;;;;;;4935524;28;20489;-66
2020/12/18 11:56:03;;;;;;;14.38;9.68;;;;;;;;;;4948234;29;20047;-67
2020/12/18 11:58:29;;;;;;;13.52;10.23;;;;;;;;;;4949843;29;20047;-67
2020/12/18 12:00:56;;;;;;;13.23;9.48;;;;;;;;;;4933609;29;20149;-65
2020/12/18 12:03:24;;;;;;;15.05;9.68;;;;;;;;;;4934083;29;20398;-64
2020/12/18 12:05:50;;;;;;;10.90;8.82;;;;;;;;;;4933382;29;20413;-66
2020/12/18 12:08:16;;;;;;;12.05;8.32;;;;;;;;;;4933691;29;20051;-66
2020/12/18 12:10:43;;;;;;;15.27;9.52;;;;;;;;;;4933588;29;20165;-66
2020/12/18 12:13:09;;;;;;;13.80;10.00;;;;;;;;;;4934051;29;20051;-64
2020/12/18 12:15:35;;;;;;;12.60;9.45;;;;;;;;;;4933297;29;20055;-64
2020/12/18 12:18:03;;;;;;;15.05;9.18;;;;;;;;;;4947164;29;20048;-66
2020/12/18 12:20:29;;;;;;;11.98;8.15;;;;;;;;;;4945354;29;20467;-64
2020/12/18 12:22:55;;;;;;;12.70;8.60;;;;;;;;;;4947111;29;20062;-62
2020/12/18 12:25:22;;;;;;;12.25;8.20;;;;;;;;;;4943079;29;20085;-72
2020/12/18 12:27:58;;;;;;;11.93;8.27;;;;;;;;;;4937378;29;20055;-67
2020/12/18 12:30:25;;;;;;;10.23;7.60;;;;;;;;;;4933630;29;20054;-70
2020/12/18 12:32:54;;;;;;;13.63;8.95;;;;;;;;;;4933502;29;20051;-73
2020/12/18 12:35:24;;;;;;;13.40;8.85;;;;;;;;;;4948553;29;20051;-64
2020/12/18 12:37:51;;;;;;;12.68;7.72;;;;;;;;;;4933725;29;20055;-62
2020/12/18 12:40:17;;;;;;;10.13;8.00;;;;;;;;;;4934979;29;20051;-62
2020/12/18 12:42:43;;;;;;;12.27;8.68;;;;;;;;;;4933754;29;20063;-62
2020/12/18 12:45:10;;;;;;;12.52;8.98;;;;;;;;;;4934195;29;20150;-62
2020/12/18 12:47:36;;;;;;;12.43;7.05;;;;;;;;;;4935149;29;20062;-60
2020/12/18 12:50:04;;;;;;;11.15;7.95;;;;;;;;;;4935442;29;20051;-61
2020/12/18 12:52:31;;;;;;;11.07;7.55;;;;;;;;;;4924980;29;20067;-61
2020/12/18 12:54:57;;;;;;;9.02;6.85;;;;;;;;;;4935542;29;20047;-62
2020/12/18 12:57:24;;;;;;;13.20;7.20;;;;;;;;;;4939218;29;20055;-61
2020/12/18 12:59:50;;;;;;;12.05;8.10;;;;;;;;;;4941213;29;20591;-62
2020/12/18 13:02:16;;;;;;;9.23;7.05;;;;;;;;;;4937878;29;20067;-62
2020/12/18 13:04:43;;;;;;;11.38;7.35;;;;;;;;;;4937967;29;20175;-62
2020/12/18 13:07:09;;;;;;;10.77;7.43;;;;;;;;;;4939862;29;20040;-62
2020/12/18 13:09:36;;;;;;;8.02;6.35;;;;;;;;;;4942712;29;20055;-62
2020/12/18 13:12:02;;;;;;;10.18;7.18;;;;;;;;;;4942689;29;20071;-62
2020/12/18 13:14:29;;;;;;;11.13;7.10;;;;;;;;;;4940356;29;20051;-66
2020/12/18 13:16:58;;;;;;;12.60;7.45;;;;;;;;;;4939670;29;20052;-69
2020/12/18 13:19:24;;;;;;;11.55;7.88;;;;;;;;;;4941036;29;20051;-66
2020/12/18 13:21:51;;;;;;;8.32;6.85;;;;;;;;;;4942824;29;20072;-66
2020/12/18 13:24:17;;;;;;;10.82;7.10;;;;;;;;;;4940694;29;20059;-67
2020/12/18 13:26:43;;;;;;;10.80;7.22;;;;;;;;;;4940309;29;20403;-68
2020/12/18 13:29:10;;;;;;;14.25;6.97;;;;;;;;;;4940316;29;20048;-67
2020/12/18 13:31:37;;;;;;;9.63;7.88;;;;;;;;;;4944717;29;20069;-66
2020/12/18 13:34:03;;;;;;;14.65;7.45;;;;;;;;;;4939442;29;20050;-65
2020/12/18 13:36:30;;;;;;;14.13;8.82;;;;;;;;;;4945786;29;20051;-67
2020/12/18 13:38:57;;;;;;;10.80;8.85;;;;;;;;;;4940687;29;20059;-66
2020/12/18 13:41:23;;;;;;;12.18;8.00;;;;;;;;;;4940999;29;20043;-67
2020/12/18 13:43:50;;;;;;;10.32;7.53;;;;;;;;;;4942176;29;20052;-66
2020/12/18 13:46:16;;;;;;;8.27;7.10;;;;;;;;;;4928734;29;20051;-66
2020/12/18 13:48:44;;;;;;;11.98;7.90;;;;;;;;;;4943362;29;20058;-66
2020/12/18 13:51:11;;;;;;;12.25;7.50;;;;;;;;;;4927198;29;20051;-67
2020/12/18 13:53:38;;;;;;;9.73;7.18;;;;;;;;;;4939046;29;20224;-66
2020/12/18 13:56:04;;;;;;;9.93;7.55;;;;;;;;;;4942061;29;20478;-67
2020/12/18 13:58:44;;;;;;;9.43;7.50;;;;;;;;;;4942314;29;20062;-67
2020/12/18 14:01:10;;;;;;;9.80;7.25;;;;;;;;;;4925463;29;20052;-65
2020/12/18 14:03:37;;;;;;;10.27;7.45;;;;;;;;;;4942246;29;20050;-66
2020/12/18 14:06:03;;;;;;;9.05;7.22;;;;;;;;;;4941554;29;20102;-69
2020/12/18 14:08:29;;;;;;;10.15;7.47;;;;;;;;;;4944484;29;20047;-66
2020/12/18 14:10:55;;;;;;;9.55;7.30;;;;;;;;;;4943124;29;20047;-67
2020/12/18 14:13:21;;;;;;;10.93;7.47;;;;;;;;;;4941036;29;20052;-69
2020/12/18 14:15:48;;;;;;;12.25;7.10;;;;;;;;;;4939336;29;20067;-66
2020/12/18 14:18:14;;;;;;;10.10;7.30;;;;;;;;;;4948014;28;20051;-67
2020/12/18 14:20:40;;;;;;;10.23;7.65;;;;;;;;;;4942841;29;20055;-67
2020/12/18 14:23:06;;;;;;;10.05;7.40;;;;;;;;;;4944010;29;20772;-65
2020/12/18 14:25:32;;;;;;;11.90;7.90;;;;;;;;;;4940992;29;20055;-65
2020/12/18 14:27:58;;;;;;;12.48;7.85;;;;;;;;;;4938612;29;20043;-66
2020/12/18 14:30:25;;;;;;;12.05;8.02;;;;;;;;;;4938887;29;20126;-65
2020/12/18 14:32:51;;;;;;;10.45;7.18;;;;;;;;;;4925480;29;20039;-67
2020/12/18 14:35:17;;;;;;;12.85;7.90;;;;;;;;;;4938996;29;20055;-68
2020/12/18 14:37:44;;;;;;;11.98;7.97;;;;;;;;;;4942104;29;20133;-67
2020/12/18 14:40:11;;;;;;;11.95;8.30;;;;;;;;;;4939320;29;20059;-67